createdAt,value
2022-12-29T00:04:11.377Z,59.13
2022-12-29T00:09:15.389Z,59.11
2022-12-29T00:14:32.483Z,58.83
2022-12-29T00:19:48.697Z,58.79
2022-12-29T00:25:06.509Z,58.88
2022-12-29T00:30:27.239Z,58.77
2022-12-29T00:35:29.661Z,58.83
2022-12-29T00:40:47.175Z,58.81
2022-12-29T00:45:46.903Z,58.99
2022-12-29T00:50:45.773Z,59.44
2022-12-29T00:55:46.813Z,59.47
2022-12-29T01:00:45.671Z,59.43
2022-12-29T01:05:45.246Z,59.42
2022-12-29T01:10:46.754Z,59.77
2022-12-29T01:15:52.069Z,59.48
2022-12-29T01:20:51.067Z,59.70
2022-12-29T01:25:51.266Z,59.60
2022-12-29T01:30:50.174Z,59.72
2022-12-29T01:35:48.956Z,59.89
2022-12-29T01:40:48.295Z,59.78
2022-12-29T01:45:54.479Z,59.76
2022-12-29T01:50:55.460Z,59.67
2022-12-29T01:55:57.843Z,59.76
2022-12-29T02:00:58.117Z,59.72
2022-12-29T02:06:01.709Z,59.66
2022-12-29T02:11:03.011Z,59.77
2022-12-29T02:16:21.382Z,60.05
2022-12-29T02:21:52.073Z,60.13
2022-12-29T02:27:23.536Z,60.51
2022-12-29T02:32:29.240Z,59.86
2022-12-29T02:37:36.492Z,59.71
2022-12-29T02:42:39.227Z,59.58
2022-12-29T02:47:44.308Z,59.41
2022-12-29T02:52:48.625Z,59.27
2022-12-29T02:57:47.447Z,58.96
2022-12-29T03:03:18.866Z,59.04
2022-12-29T03:08:25.544Z,59.11
2022-12-29T03:13:47.861Z,59.51
2022-12-29T03:18:58.599Z,59.41
2022-12-29T03:23:57.711Z,59.67
2022-12-29T03:29:00.224Z,59.77
2022-12-29T03:34:05.155Z,59.68
2022-12-29T03:39:12.807Z,60.04
2022-12-29T03:44:12.573Z,60.08
2022-12-29T03:49:13.284Z,59.85
2022-12-29T03:54:12.096Z,60.01
2022-12-29T03:59:10.912Z,59.96
2022-12-29T04:04:13.610Z,60.07
2022-12-29T04:09:13.428Z,59.98
2022-12-29T04:14:17.158Z,60.16
2022-12-29T04:19:18.733Z,60.11
2022-12-29T04:24:19.737Z,60.41
2022-12-29T04:29:21.696Z,60.89
2022-12-29T04:34:43.686Z,60.95
2022-12-29T04:39:42.763Z,61.02
2022-12-29T04:44:45.207Z,60.62
2022-12-29T04:50:06.376Z,60.78
2022-12-29T04:55:11.996Z,61.12
2022-12-29T05:00:13.666Z,60.91
2022-12-29T05:05:14.228Z,61.21
2022-12-29T05:10:15.600Z,61.34
2022-12-29T05:15:15.666Z,61.32
2022-12-29T05:20:17.217Z,61.35
2022-12-29T05:25:16.319Z,62.59
2022-12-29T05:30:26.235Z,62.34
2022-12-29T05:35:26.979Z,62.12
2022-12-29T05:40:25.923Z,62.05
2022-12-29T05:45:28.492Z,61.87
2022-12-29T05:50:37.089Z,61.35
2022-12-29T05:55:48.558Z,61.43
2022-12-29T06:00:48.703Z,61.31
2022-12-29T06:05:49.214Z,61.44
2022-12-29T06:10:49.179Z,61.66
2022-12-29T06:15:50.965Z,61.61
2022-12-29T06:20:52.659Z,61.35
2022-12-29T06:25:51.849Z,60.97
2022-12-29T06:30:50.736Z,60.81
2022-12-29T06:35:52.171Z,61.00
2022-12-29T06:40:51.044Z,61.30
2022-12-29T06:45:52.589Z,61.22
2022-12-29T06:50:52.778Z,61.92
2022-12-29T06:55:51.623Z,62.44
2022-12-29T07:00:50.666Z,63.19
2022-12-29T07:05:49.505Z,63.34
2022-12-29T07:10:49.692Z,63.03
2022-12-29T07:15:48.478Z,63.30
2022-12-29T07:20:47.244Z,83.94
2022-12-29T07:25:45.927Z,78.22
2022-12-29T07:30:48.477Z,70.43
2022-12-29T07:35:47.247Z,68.33
2022-12-29T07:40:46.188Z,67.78
2022-12-29T07:45:46.373Z,68.55
2022-12-29T07:50:45.110Z,68.37
2022-12-29T07:55:44.318Z,67.75
2022-12-29T08:00:43.063Z,67.63
2022-12-29T08:05:43.176Z,67.07
2022-12-29T08:10:41.938Z,66.91
2022-12-29T08:15:40.660Z,66.58
2022-12-29T08:20:39.458Z,67.40
2022-12-29T08:25:39.625Z,68.54
2022-12-29T08:30:38.686Z,70.00
2022-12-29T08:35:37.482Z,71.97
2022-12-29T08:40:36.392Z,71.38
2022-12-29T08:45:36.532Z,70.42
2022-12-29T08:50:35.248Z,70.24
2022-12-29T08:55:33.999Z,69.75
2022-12-29T09:00:33.859Z,71.04
2022-12-29T09:05:34.401Z,70.38
2022-12-29T09:10:33.570Z,69.31
2022-12-29T09:15:32.347Z,67.02
2022-12-29T09:20:31.326Z,65.14
2022-12-29T09:25:31.943Z,62.15
2022-12-29T09:30:30.895Z,59.47
2022-12-29T09:35:29.669Z,57.06
2022-12-29T09:40:32.777Z,56.44
2022-12-29T09:45:37.419Z,56.03
2022-12-29T09:50:39.392Z,54.55
2022-12-29T09:55:48.121Z,54.75
2022-12-29T10:00:56.390Z,52.33
2022-12-29T10:06:03.129Z,52.78
2022-12-29T10:11:13.001Z,53.79
2022-12-29T10:16:17.532Z,51.79
2022-12-29T10:21:24.907Z,50.12
2022-12-29T10:26:29.067Z,49.24
2022-12-29T10:31:36.193Z,47.81
2022-12-29T10:36:40.997Z,46.77
2022-12-29T10:41:46.876Z,45.70
2022-12-29T10:46:49.881Z,45.80
2022-12-29T10:51:53.079Z,44.84
2022-12-29T10:56:58.491Z,44.82
2022-12-29T11:02:04.301Z,44.79
2022-12-29T11:07:04.384Z,44.00
2022-12-29T11:12:21.588Z,43.66
2022-12-29T11:17:21.201Z,43.11
2022-12-29T11:22:24.762Z,42.82
2022-12-29T11:27:26.231Z,42.18
2022-12-29T11:32:29.087Z,42.22
2022-12-29T11:37:32.784Z,41.35
2022-12-29T11:42:38.331Z,40.54
2022-12-29T11:47:37.602Z,39.67
2022-12-29T11:52:40.559Z,40.01
2022-12-29T11:57:44.552Z,39.64
2022-12-29T12:02:48.035Z,38.49
2022-12-29T12:07:48.875Z,38.33
2022-12-29T12:12:53.795Z,37.20
2022-12-29T12:17:57.233Z,37.62
2022-12-29T12:23:09.616Z,36.15
2022-12-29T12:28:17.223Z,35.19
2022-12-29T12:33:24.645Z,35.77
2022-12-29T12:38:34.386Z,35.32
2022-12-29T12:43:42.506Z,35.57
2022-12-29T12:48:57.375Z,35.61
2022-12-29T12:54:10.700Z,35.72
2022-12-29T12:59:26.250Z,33.95
2022-12-29T13:04:48.613Z,34.18
2022-12-29T13:09:57.664Z,32.25
2022-12-29T13:15:10.921Z,33.36
2022-12-29T13:20:23.258Z,33.43
2022-12-29T13:25:30.252Z,32.65
2022-12-29T13:30:39.243Z,33.00
2022-12-29T13:35:53.423Z,32.88
2022-12-29T13:40:55.950Z,34.16
2022-12-29T13:46:01.143Z,34.38
2022-12-29T13:51:03.257Z,35.49
2022-12-29T13:56:08.870Z,35.71
2022-12-29T14:01:17.005Z,35.51
2022-12-29T14:06:25.450Z,35.59
2022-12-29T14:11:30.892Z,35.63
2022-12-29T14:16:34.328Z,36.11
2022-12-29T14:21:35.178Z,35.93
2022-12-29T14:26:38.364Z,35.59
2022-12-29T14:31:42.930Z,36.47
2022-12-29T14:36:43.975Z,37.10
2022-12-29T14:41:42.915Z,37.12
2022-12-29T14:46:57.648Z,38.40
2022-12-29T14:52:06.582Z,39.28
2022-12-29T14:57:09.116Z,39.98
2022-12-29T15:02:18.851Z,40.17
2022-12-29T15:07:21.691Z,41.23
2022-12-29T15:12:31.213Z,41.49
2022-12-29T15:17:34.046Z,42.20
2022-12-29T15:22:33.083Z,42.78
2022-12-29T15:27:32.261Z,43.06
2022-12-29T15:32:42.197Z,43.63
2022-12-29T15:37:40.944Z,44.22
2022-12-29T15:42:56.933Z,44.60
2022-12-29T15:47:58.856Z,45.42
2022-12-29T15:53:01.530Z,45.88
2022-12-29T15:58:03.015Z,46.05
2022-12-29T16:03:05.615Z,46.66
2022-12-29T16:08:05.321Z,46.94
2022-12-29T16:13:06.841Z,47.60
2022-12-29T16:18:07.285Z,48.28
2022-12-29T16:23:06.087Z,48.59
2022-12-29T16:28:16.664Z,49.27
2022-12-29T16:33:38.733Z,49.15
2022-12-29T16:38:37.587Z,49.65
2022-12-29T16:43:42.977Z,50.01
2022-12-29T16:48:50.368Z,50.06
2022-12-29T16:53:54.311Z,50.97
2022-12-29T16:58:59.882Z,51.28
2022-12-29T17:04:07.470Z,51.63
2022-12-29T17:09:19.859Z,52.67
2022-12-29T17:14:23.368Z,53.73
2022-12-29T17:19:30.980Z,53.95
2022-12-29T17:24:30.135Z,54.13
2022-12-29T17:29:34.732Z,54.41
2022-12-29T17:34:35.391Z,54.40
2022-12-29T17:39:34.193Z,54.32
2022-12-29T17:44:32.932Z,54.38
2022-12-29T17:49:31.685Z,54.35
2022-12-29T17:54:32.781Z,54.41
2022-12-29T17:59:31.554Z,54.58
2022-12-29T18:04:30.376Z,54.81
2022-12-29T18:09:29.115Z,54.78
2022-12-29T18:14:29.419Z,55.01
2022-12-29T18:19:33.942Z,55.11
2022-12-29T18:24:34.694Z,55.75
2022-12-29T18:29:35.680Z,55.84
2022-12-29T18:34:34.406Z,56.25
2022-12-29T18:39:33.202Z,56.23
2022-12-29T18:44:32.074Z,56.46
2022-12-29T18:49:32.199Z,56.37
2022-12-29T18:54:32.867Z,56.39
2022-12-29T18:59:31.616Z,56.49
2022-12-29T19:04:31.989Z,56.66
2022-12-29T19:09:30.695Z,57.31
2022-12-29T19:14:29.609Z,57.54
2022-12-29T19:19:28.396Z,57.20
2022-12-29T19:24:28.645Z,57.87
2022-12-29T19:29:27.475Z,58.09
2022-12-29T19:34:26.387Z,57.97
2022-12-29T19:39:25.296Z,58.06
2022-12-29T19:44:28.830Z,58.06
2022-12-29T19:49:32.119Z,57.83
2022-12-29T19:54:32.754Z,57.54
2022-12-29T19:59:33.012Z,57.96
2022-12-29T20:04:35.009Z,58.07
2022-12-29T20:09:34.043Z,58.02
2022-12-29T20:14:35.959Z,58.43
2022-12-29T20:19:39.586Z,58.25
2022-12-29T20:24:46.763Z,58.21
2022-12-29T20:29:52.919Z,58.29
2022-12-29T20:34:56.400Z,58.34
2022-12-29T20:39:56.410Z,58.63
2022-12-29T20:45:00.124Z,58.77
2022-12-29T20:49:58.951Z,59.03
2022-12-29T20:54:59.412Z,60.10
2022-12-29T21:00:07.520Z,60.02
2022-12-29T21:05:25.811Z,59.52
2022-12-29T21:10:27.540Z,59.54
2022-12-29T21:15:30.789Z,59.71
2022-12-29T21:20:32.240Z,59.72
2022-12-29T21:25:37.340Z,59.96
2022-12-29T21:30:39.349Z,59.89
2022-12-29T21:35:41.461Z,59.77
2022-12-29T21:40:43.337Z,60.34
2022-12-29T21:45:51.970Z,60.39
2022-12-29T21:51:14.958Z,60.68
2022-12-29T21:56:17.928Z,60.28
2022-12-29T22:01:35.821Z,60.39
2022-12-29T22:06:54.118Z,60.07
2022-12-29T22:12:10.174Z,60.32
2022-12-29T22:17:14.161Z,60.60
2022-12-29T22:22:13.625Z,60.98
2022-12-29T22:27:13.224Z,60.90
2022-12-29T22:32:13.440Z,60.71
2022-12-29T22:37:12.223Z,61.13
2022-12-29T22:42:11.211Z,61.06
2022-12-29T22:47:09.985Z,61.49
2022-12-29T22:52:10.211Z,60.97
2022-12-29T22:57:08.984Z,60.73
2022-12-29T23:02:08.011Z,60.66
2022-12-29T23:07:07.399Z,60.27
2022-12-29T23:12:07.857Z,60.62
2022-12-29T23:17:06.588Z,60.90
2022-12-29T23:22:05.474Z,61.72
2022-12-29T23:27:04.319Z,62.51
2022-12-29T23:32:04.745Z,61.90
2022-12-29T23:37:03.527Z,61.87
2022-12-29T23:42:02.312Z,61.92
2022-12-29T23:47:01.352Z,62.05
2022-12-29T23:52:01.622Z,62.02
2022-12-29T23:57:00.453Z,61.92
